sensor_id;sensor_type;location;lat;lon;timestamp;P1;durP1;ratioP1;P2;durP2;ratioP2
1677;SDS011;6034;46.864;15.216;2023-07-13T05:02:45;3.90;;;1.53;;
1677;SDS011;6034;46.864;15.216;2023-07-13T05:05:12;3.13;;;1.57;;
1677;SDS011;6034;46.864;15.216;2023-07-13T05:07:40;2.10;;;1.40;;
1677;SDS011;6034;46.864;15.216;2023-07-13T05:10:09;2.00;;;1.10;;
1677;SDS011;6034;46.864;15.216;2023-07-13T05:12:37;2.50;;;1.20;;
1677;SDS011;6034;46.864;15.216;2023-07-13T05:15:07;1.60;;;0.77;;
1677;SDS011;6034;46.864;15.216;2023-07-13T05:17:38;3.63;;;1.00;;
1677;SDS011;6034;46.864;15.216;2023-07-13T05:20:10;2.10;;;1.70;;
1677;SDS011;6034;46.864;15.216;2023-07-13T05:22:42;2.93;;;1.30;;
1677;SDS011;6034;46.864;15.216;2023-07-13T05:25:09;3.63;;;1.90;;
1677;SDS011;6034;46.864;15.216;2023-07-13T05:30:11;3.30;;;1.60;;
1677;SDS011;6034;46.864;15.216;2023-07-13T05:32:39;3.20;;;1.70;;
1677;SDS011;6034;46.864;15.216;2023-07-13T05:35:10;4.30;;;1.70;;
1677;SDS011;6034;46.864;15.216;2023-07-13T05:37:38;4.00;;;1.60;;
1677;SDS011;6034;46.864;15.216;2023-07-13T05:40:06;3.43;;;1.47;;
1677;SDS011;6034;46.864;15.216;2023-07-13T05:42:35;2.63;;;1.67;;
1677;SDS011;6034;46.864;15.216;2023-07-13T05:45:03;2.67;;;2.20;;
1677;SDS011;6034;46.864;15.216;2023-07-13T05:47:31;3.03;;;1.80;;
1677;SDS011;6034;46.864;15.216;2023-07-13T05:49:58;1.87;;;1.40;;
1677;SDS011;6034;46.864;15.216;2023-07-13T05:52:28;2.63;;;1.67;;
1677;SDS011;6034;46.864;15.216;2023-07-13T05:55:04;2.67;;;1.77;;
1677;SDS011;6034;46.864;15.216;2023-07-13T05:57:33;2.13;;;1.73;;
1677;SDS011;6034;46.864;15.216;2023-07-13T06:00:02;2.77;;;1.50;;
1677;SDS011;6034;46.864;15.216;2023-07-13T06:02:40;4.07;;;1.37;;
1677;SDS011;6034;46.864;15.216;2023-07-13T06:05:08;4.17;;;1.87;;
1677;SDS011;6034;46.864;15.216;2023-07-13T06:07:46;3.07;;;1.93;;
1677;SDS011;6034;46.864;15.216;2023-07-13T06:10:16;4.23;;;1.50;;
1677;SDS011;6034;46.864;15.216;2023-07-13T06:12:47;3.57;;;1.30;;
1677;SDS011;6034;46.864;15.216;2023-07-13T06:15:18;3.77;;;1.70;;
1677;SDS011;6034;46.864;15.216;2023-07-13T06:17:47;1.90;;;1.47;;
1677;SDS011;6034;46.864;15.216;2023-07-13T06:20:23;2.67;;;2.00;;
1677;SDS011;6034;46.864;15.216;2023-07-13T06:23:33;2.77;;;1.50;;
1677;SDS011;6034;46.864;15.216;2023-07-13T06:26:02;3.30;;;1.53;;
1677;SDS011;6034;46.864;15.216;2023-07-13T06:28:33;4.50;;;1.83;;
1677;SDS011;6034;46.864;15.216;2023-07-13T06:33:53;2.50;;;1.23;;
1677;SDS011;6034;46.864;15.216;2023-07-13T06:36:21;3.87;;;1.67;;
1677;SDS011;6034;46.864;15.216;2023-07-13T06:38:52;3.33;;;1.50;;
1677;SDS011;6034;46.864;15.216;2023-07-13T06:41:19;3.27;;;1.63;;
1677;SDS011;6034;46.864;15.216;2023-07-13T06:43:50;2.40;;;1.40;;
1677;SDS011;6034;46.864;15.216;2023-07-13T06:46:19;3.63;;;1.57;;
1677;SDS011;6034;46.864;15.216;2023-07-13T06:48:52;3.90;;;2.10;;
1677;SDS011;6034;46.864;15.216;2023-07-13T06:51:19;2.67;;;2.10;;
1677;SDS011;6034;46.864;15.216;2023-07-13T06:53:46;4.83;;;1.90;;
1677;SDS011;6034;46.864;15.216;2023-07-13T06:56:16;3.83;;;2.00;;
1677;SDS011;6034;46.864;15.216;2023-07-13T06:58:44;4.80;;;2.27;;
1677;SDS011;6034;46.864;15.216;2023-07-13T07:01:11;2.80;;;1.10;;
1677;SDS011;6034;46.864;15.216;2023-07-13T07:03:38;4.53;;;1.90;;
1677;SDS011;6034;46.864;15.216;2023-07-13T07:06:10;4.03;;;1.87;;
1677;SDS011;6034;46.864;15.216;2023-07-13T07:08:40;1.93;;;1.63;;
1677;SDS011;6034;46.864;15.216;2023-07-13T07:11:08;3.17;;;1.73;;
1677;SDS011;6034;46.864;15.216;2023-07-13T07:13:39;7.37;;;1.83;;
1677;SDS011;6034;46.864;15.216;2023-07-13T07:16:06;3.30;;;1.90;;
1677;SDS011;6034;46.864;15.216;2023-07-13T07:18:34;3.70;;;1.50;;
1677;SDS011;6034;46.864;15.216;2023-07-13T07:21:01;3.20;;;2.37;;
1677;SDS011;6034;46.864;15.216;2023-07-13T07:23:29;5.37;;;1.87;;
1677;SDS011;6034;46.864;15.216;2023-07-13T07:25:57;2.97;;;1.50;;
1677;SDS011;6034;46.864;15.216;2023-07-13T07:28:25;3.17;;;1.73;;
1677;SDS011;6034;46.864;15.216;2023-07-13T07:30:56;2.93;;;1.60;;
1677;SDS011;6034;46.864;15.216;2023-07-13T07:33:24;2.40;;;1.53;;
1677;SDS011;6034;46.864;15.216;2023-07-13T07:35:52;3.20;;;1.70;;
1677;SDS011;6034;46.864;15.216;2023-07-13T07:38:20;2.20;;;1.70;;
1677;SDS011;6034;46.864;15.216;2023-07-13T07:40:48;3.40;;;1.93;;
1677;SDS011;6034;46.864;15.216;2023-07-13T07:43:17;3.63;;;1.97;;
1677;SDS011;6034;46.864;15.216;2023-07-13T07:45:44;3.00;;;1.90;;
1677;SDS011;6034;46.864;15.216;2023-07-13T07:48:13;2.90;;;1.67;;
1677;SDS011;6034;46.864;15.216;2023-07-13T07:50:41;3.97;;;1.80;;
1677;SDS011;6034;46.864;15.216;2023-07-13T07:53:09;2.93;;;1.70;;
1677;SDS011;6034;46.864;15.216;2023-07-13T07:55:37;2.50;;;1.60;;
1677;SDS011;6034;46.864;15.216;2023-07-13T07:58:05;4.07;;;1.73;;
1677;SDS011;6034;46.864;15.216;2023-07-13T08:00:32;2.23;;;1.70;;
1677;SDS011;6034;46.864;15.216;2023-07-13T08:03:01;3.10;;;1.93;;
1677;SDS011;6034;46.864;15.216;2023-07-13T08:05:31;3.50;;;2.27;;
1677;SDS011;6034;46.864;15.216;2023-07-13T08:07:58;2.83;;;2.07;;
1677;SDS011;6034;46.864;15.216;2023-07-13T08:10:26;3.77;;;2.00;;
1677;SDS011;6034;46.864;15.216;2023-07-13T08:12:55;7.10;;;3.13;;
1677;SDS011;6034;46.864;15.216;2023-07-13T08:15:23;3.20;;;2.00;;
1677;SDS011;6034;46.864;15.216;2023-07-13T08:17:54;2.07;;;1.83;;
1677;SDS011;6034;46.864;15.216;2023-07-13T08:20:21;2.30;;;2.00;;
1677;SDS011;6034;46.864;15.216;2023-07-13T08:22:51;2.43;;;1.53;;
1677;SDS011;6034;46.864;15.216;2023-07-13T08:25:18;2.60;;;2.30;;
1677;SDS011;6034;46.864;15.216;2023-07-13T08:27:47;2.80;;;1.97;;
1677;SDS011;6034;46.864;15.216;2023-07-13T08:30:15;2.73;;;1.60;;
1677;SDS011;6034;46.864;15.216;2023-07-13T08:32:50;2.87;;;2.20;;
1677;SDS011;6034;46.864;15.216;2023-07-13T08:35:29;2.30;;;2.10;;
1677;SDS011;6034;46.864;15.216;2023-07-13T08:38:10;2.10;;;1.67;;
1677;SDS011;6034;46.864;15.216;2023-07-13T08:40:49;2.73;;;1.97;;
1677;SDS011;6034;46.864;15.216;2023-07-13T08:43:25;2.23;;;2.00;;
1677;SDS011;6034;46.864;15.216;2023-07-13T08:46:02;3.57;;;2.07;;
1677;SDS011;6034;46.864;15.216;2023-07-13T08:48:40;2.53;;;1.63;;
1677;SDS011;6034;46.864;15.216;2023-07-13T08:51:25;3.67;;;1.93;;
1677;SDS011;6034;46.864;15.216;2023-07-13T08:54:00;5.80;;;2.90;;
1677;SDS011;6034;46.864;15.216;2023-07-13T08:56:32;1.97;;;1.60;;
1677;SDS011;6034;46.864;15.216;2023-07-13T08:59:06;3.27;;;2.33;;
1677;SDS011;6034;46.864;15.216;2023-07-13T09:01:47;2.83;;;1.83;;
1677;SDS011;6034;46.864;15.216;2023-07-13T09:04:34;3.40;;;1.57;;
1677;SDS011;6034;46.864;15.216;2023-07-13T09:10:04;3.60;;;1.50;;
1677;SDS011;6034;46.864;15.216;2023-07-13T09:12:45;5.00;;;1.73;;
1677;SDS011;6034;46.864;15.216;2023-07-13T09:15:28;5.20;;;1.63;;
1677;SDS011;6034;46.864;15.216;2023-07-13T09:18:05;5.00;;;1.50;;
1677;SDS011;6034;46.864;15.216;2023-07-13T09:20:40;3.57;;;1.50;;
1677;SDS011;6034;46.864;15.216;2023-07-13T09:23:16;2.30;;;1.47;;
1677;SDS011;6034;46.864;15.216;2023-07-13T09:25:49;2.40;;;1.57;;
1677;SDS011;6034;46.864;15.216;2023-07-13T09:28:23;2.53;;;1.77;;
1677;SDS011;6034;46.864;15.216;2023-07-13T09:30:56;3.20;;;1.40;;
1677;SDS011;6034;46.864;15.216;2023-07-13T09:33:31;2.43;;;1.60;;
1677;SDS011;6034;46.864;15.216;2023-07-13T09:36:03;2.70;;;1.60;;
1677;SDS011;6034;46.864;15.216;2023-07-13T09:38:58;2.10;;;1.83;;
1677;SDS011;6034;46.864;15.216;2023-07-13T09:41:36;2.50;;;1.43;;
1677;SDS011;6034;46.864;15.216;2023-07-13T09:44:14;2.90;;;1.63;;
1677;SDS011;6034;46.864;15.216;2023-07-13T09:46:43;1.77;;;1.30;;
1677;SDS011;6034;46.864;15.216;2023-07-13T09:49:12;2.07;;;1.40;;
1677;SDS011;6034;46.864;15.216;2023-07-13T09:51:50;2.57;;;1.20;;
1677;SDS011;6034;46.864;15.216;2023-07-13T09:54:27;1.73;;;1.20;;
1677;SDS011;6034;46.864;15.216;2023-07-13T09:59:56;1.97;;;1.17;;
1677;SDS011;6034;46.864;15.216;2023-07-13T10:02:26;3.50;;;1.37;;
1677;SDS011;6034;46.864;15.216;2023-07-13T10:04:59;2.17;;;1.23;;
1677;SDS011;6034;46.864;15.216;2023-07-13T10:07:32;5.87;;;1.80;;
1677;SDS011;6034;46.864;15.216;2023-07-13T10:10:13;2.60;;;1.30;;
1677;SDS011;6034;46.864;15.216;2023-07-13T10:12:49;3.70;;;1.30;;
1677;SDS011;6034;46.864;15.216;2023-07-13T10:15:24;2.40;;;1.30;;
1677;SDS011;6034;46.864;15.216;2023-07-13T10:17:54;1.80;;;1.17;;
1677;SDS011;6034;46.864;15.216;2023-07-13T10:20:26;2.70;;;1.37;;
1677;SDS011;6034;46.864;15.216;2023-07-13T10:23:02;1.90;;;1.33;;
1677;SDS011;6034;46.864;15.216;2023-07-13T10:25:34;3.83;;;2.10;;
1677;SDS011;6034;46.864;15.216;2023-07-13T10:28:11;14.30;;;10.40;;
1677;SDS011;6034;46.864;15.216;2023-07-13T10:30:58;2.90;;;2.07;;
1677;SDS011;6034;46.864;15.216;2023-07-13T10:33:28;2.27;;;1.40;;
1677;SDS011;6034;46.864;15.216;2023-07-13T10:35:57;2.83;;;1.33;;
1677;SDS011;6034;46.864;15.216;2023-07-13T10:38:30;2.23;;;1.17;;
1677;SDS011;6034;46.864;15.216;2023-07-13T10:40:59;2.13;;;1.10;;
1677;SDS011;6034;46.864;15.216;2023-07-13T10:43:33;2.57;;;1.60;;
1677;SDS011;6034;46.864;15.216;2023-07-13T10:46:04;1.73;;;1.40;;
1677;SDS011;6034;46.864;15.216;2023-07-13T10:48:34;2.30;;;1.40;;
1677;SDS011;6034;46.864;15.216;2023-07-13T10:51:03;2.27;;;1.43;;
1677;SDS011;6034;46.864;15.216;2023-07-13T10:53:39;3.30;;;1.30;;
1677;SDS011;6034;46.864;15.216;2023-07-13T10:56:10;2.10;;;1.03;;
1677;SDS011;6034;46.864;15.216;2023-07-13T10:59:09;1.40;;;1.00;;
1677;SDS011;6034;46.864;15.216;2023-07-13T11:01:41;2.60;;;1.30;;
1677;SDS011;6034;46.864;15.216;2023-07-13T11:04:16;2.40;;;1.50;;
1677;SDS011;6034;46.864;15.216;2023-07-13T11:06:48;2.03;;;1.47;;
1677;SDS011;6034;46.864;15.216;2023-07-13T11:09:33;1.80;;;1.30;;
1677;SDS011;6034;46.864;15.216;2023-07-13T11:12:06;1.60;;;1.20;;
1677;SDS011;6034;46.864;15.216;2023-07-13T11:14:43;2.30;;;1.70;;
1677;SDS011;6034;46.864;15.216;2023-07-13T11:17:35;1.53;;;1.27;;
1677;SDS011;6034;46.864;15.216;2023-07-13T11:20:19;1.80;;;1.23;;
1677;SDS011;6034;46.864;15.216;2023-07-13T11:22:50;1.70;;;1.20;;
1677;SDS011;6034;46.864;15.216;2023-07-13T11:25:25;2.23;;;1.30;;
1677;SDS011;6034;46.864;15.216;2023-07-13T11:28:15;4.23;;;1.50;;
1677;SDS011;6034;46.864;15.216;2023-07-13T11:30:49;1.80;;;1.20;;
1677;SDS011;6034;46.864;15.216;2023-07-13T11:33:28;2.10;;;1.53;;
1677;SDS011;6034;46.864;15.216;2023-07-13T11:36:16;5.10;;;1.50;;
1677;SDS011;6034;46.864;15.216;2023-07-13T11:38:50;2.30;;;1.33;;
1677;SDS011;6034;46.864;15.216;2023-07-13T11:41:26;1.80;;;1.47;;
1677;SDS011;6034;46.864;15.216;2023-07-13T11:44:01;2.83;;;1.50;;
1677;SDS011;6034;46.864;15.216;2023-07-13T11:46:34;1.70;;;1.30;;
1677;SDS011;6034;46.864;15.216;2023-07-13T11:49:04;2.40;;;1.60;;
1677;SDS011;6034;46.864;15.216;2023-07-13T11:51:33;12.17;;;9.70;;
1677;SDS011;6034;46.864;15.216;2023-07-13T11:54:03;25.60;;;21.00;;
1677;SDS011;6034;46.864;15.216;2023-07-13T11:56:33;10.33;;;8.50;;
1677;SDS011;6034;46.864;15.216;2023-07-13T11:59:04;3.37;;;2.63;;
1677;SDS011;6034;46.864;15.216;2023-07-13T12:01:36;3.40;;;1.80;;
1677;SDS011;6034;46.864;15.216;2023-07-13T12:04:11;3.20;;;1.80;;
1677;SDS011;6034;46.864;15.216;2023-07-13T12:06:54;2.20;;;1.33;;
1677;SDS011;6034;46.864;15.216;2023-07-13T12:09:25;2.40;;;1.40;;
1677;SDS011;6034;46.864;15.216;2023-07-13T12:11:56;3.57;;;1.93;;
1677;SDS011;6034;46.864;15.216;2023-07-13T12:14:25;2.13;;;1.50;;
1677;SDS011;6034;46.864;15.216;2023-07-13T12:16:55;2.50;;;1.70;;
1677;SDS011;6034;46.864;15.216;2023-07-13T12:19:23;1.93;;;1.17;;
1677;SDS011;6034;46.864;15.216;2023-07-13T12:21:53;1.97;;;1.30;;
1677;SDS011;6034;46.864;15.216;2023-07-13T12:24:23;2.43;;;1.27;;
1677;SDS011;6034;46.864;15.216;2023-07-13T12:26:51;2.17;;;1.40;;
1677;SDS011;6034;46.864;15.216;2023-07-13T12:29:20;6.73;;;1.63;;
1677;SDS011;6034;46.864;15.216;2023-07-13T12:31:48;3.73;;;1.80;;
1677;SDS011;6034;46.864;15.216;2023-07-13T12:34:20;4.80;;;1.57;;
1677;SDS011;6034;46.864;15.216;2023-07-13T12:36:51;3.07;;;1.63;;
1677;SDS011;6034;46.864;15.216;2023-07-13T12:39:20;2.33;;;1.60;;
1677;SDS011;6034;46.864;15.216;2023-07-13T12:41:49;2.07;;;1.20;;
1677;SDS011;6034;46.864;15.216;2023-07-13T12:44:22;2.70;;;2.00;;
1677;SDS011;6034;46.864;15.216;2023-07-13T12:46:55;11.47;;;10.27;;
1677;SDS011;6034;46.864;15.216;2023-07-13T12:49:27;76.83;;;68.63;;
1677;SDS011;6034;46.864;15.216;2023-07-13T12:51:58;47.93;;;42.93;;
1677;SDS011;6034;46.864;15.216;2023-07-13T12:54:27;21.27;;;17.33;;
1677;SDS011;6034;46.864;15.216;2023-07-13T12:56:55;51.10;;;45.57;;
1677;SDS011;6034;46.864;15.216;2023-07-13T12:59:33;29.00;;;25.33;;
1677;SDS011;6034;46.864;15.216;2023-07-13T13:02:01;34.53;;;28.60;;
1677;SDS011;6034;46.864;15.216;2023-07-13T13:04:31;17.03;;;12.83;;
1677;SDS011;6034;46.864;15.216;2023-07-13T13:07:03;22.47;;;19.87;;
1677;SDS011;6034;46.864;15.216;2023-07-13T13:09:34;20.60;;;17.90;;
1677;SDS011;6034;46.864;15.216;2023-07-13T13:12:09;12.70;;;10.83;;
1677;SDS011;6034;46.864;15.216;2023-07-13T13:14:37;13.30;;;11.73;;
1677;SDS011;6034;46.864;15.216;2023-07-13T13:17:07;20.97;;;18.43;;
1677;SDS011;6034;46.864;15.216;2023-07-13T13:19:46;2.77;;;1.67;;
1677;SDS011;6034;46.864;15.216;2023-07-13T13:22:15;2.70;;;1.57;;
1677;SDS011;6034;46.864;15.216;2023-07-13T13:24:43;2.87;;;1.87;;
1677;SDS011;6034;46.864;15.216;2023-07-13T13:27:13;18.27;;;13.27;;
1677;SDS011;6034;46.864;15.216;2023-07-13T13:29:43;11.93;;;10.73;;
1677;SDS011;6034;46.864;15.216;2023-07-13T13:32:11;4.50;;;2.70;;
1677;SDS011;6034;46.864;15.216;2023-07-13T13:34:40;6.43;;;5.27;;
1677;SDS011;6034;46.864;15.216;2023-07-13T13:37:15;3.57;;;2.27;;
1677;SDS011;6034;46.864;15.216;2023-07-13T13:39:45;7.80;;;5.37;;
1677;SDS011;6034;46.864;15.216;2023-07-13T13:42:13;6.90;;;6.20;;
1677;SDS011;6034;46.864;15.216;2023-07-13T13:44:41;4.03;;;3.23;;
1677;SDS011;6034;46.864;15.216;2023-07-13T13:47:15;4.27;;;3.30;;
1677;SDS011;6034;46.864;15.216;2023-07-13T13:49:54;3.30;;;2.27;;
1677;SDS011;6034;46.864;15.216;2023-07-13T13:52:23;3.40;;;1.97;;
1677;SDS011;6034;46.864;15.216;2023-07-13T13:54:51;5.57;;;3.40;;
1677;SDS011;6034;46.864;15.216;2023-07-13T13:57:21;3.57;;;2.97;;
1677;SDS011;6034;46.864;15.216;2023-07-13T13:59:51;2.60;;;1.80;;
1677;SDS011;6034;46.864;15.216;2023-07-13T14:02:22;3.90;;;2.00;;
1677;SDS011;6034;46.864;15.216;2023-07-13T14:04:52;2.37;;;1.40;;
1677;SDS011;6034;46.864;15.216;2023-07-13T14:07:24;2.17;;;1.63;;
1677;SDS011;6034;46.864;15.216;2023-07-13T14:09:54;1.60;;;1.30;;
1677;SDS011;6034;46.864;15.216;2023-07-13T14:12:23;2.20;;;1.83;;
1677;SDS011;6034;46.864;15.216;2023-07-13T14:14:53;1.83;;;1.33;;
1677;SDS011;6034;46.864;15.216;2023-07-13T14:17:22;3.60;;;1.57;;
1677;SDS011;6034;46.864;15.216;2023-07-13T14:22:28;3.73;;;1.50;;
1677;SDS011;6034;46.864;15.216;2023-07-13T14:24:55;2.77;;;1.20;;
1677;SDS011;6034;46.864;15.216;2023-07-13T14:27:24;2.03;;;1.50;;
1677;SDS011;6034;46.864;15.216;2023-07-13T14:29:52;2.23;;;1.80;;
1677;SDS011;6034;46.864;15.216;2023-07-13T14:32:21;2.30;;;1.57;;
1677;SDS011;6034;46.864;15.216;2023-07-13T14:34:50;3.10;;;1.93;;
1677;SDS011;6034;46.864;15.216;2023-07-13T14:37:23;2.40;;;1.60;;
1677;SDS011;6034;46.864;15.216;2023-07-13T14:39:53;4.00;;;1.80;;
1677;SDS011;6034;46.864;15.216;2023-07-13T14:42:28;3.03;;;2.27;;
1677;SDS011;6034;46.864;15.216;2023-07-13T14:44:56;3.40;;;1.43;;
1677;SDS011;6034;46.864;15.216;2023-07-13T14:47:24;3.07;;;1.90;;
1677;SDS011;6034;46.864;15.216;2023-07-13T14:49:51;2.40;;;1.77;;
1677;SDS011;6034;46.864;15.216;2023-07-13T14:52:20;2.97;;;1.60;;
1677;SDS011;6034;46.864;15.216;2023-07-13T14:54:49;4.30;;;2.03;;
1677;SDS011;6034;46.864;15.216;2023-07-13T14:57:20;2.57;;;1.70;;
1677;SDS011;6034;46.864;15.216;2023-07-13T14:59:48;4.27;;;2.03;;
1677;SDS011;6034;46.864;15.216;2023-07-13T15:02:17;4.53;;;1.63;;
1677;SDS011;6034;46.864;15.216;2023-07-13T15:04:56;1.93;;;1.67;;
1677;SDS011;6034;46.864;15.216;2023-07-13T15:07:25;3.50;;;2.00;;
1677;SDS011;6034;46.864;15.216;2023-07-13T15:09:53;3.00;;;1.63;;
1677;SDS011;6034;46.864;15.216;2023-07-13T15:12:22;2.20;;;2.00;;
1677;SDS011;6034;46.864;15.216;2023-07-13T15:14:52;5.10;;;2.30;;
1677;SDS011;6034;46.864;15.216;2023-07-13T15:17:22;2.83;;;1.67;;
1677;SDS011;6034;46.864;15.216;2023-07-13T15:19:54;5.63;;;1.77;;
1677;SDS011;6034;46.864;15.216;2023-07-13T15:22:24;2.70;;;1.60;;
1677;SDS011;6034;46.864;15.216;2023-07-13T15:24:51;2.57;;;1.67;;
1677;SDS011;6034;46.864;15.216;2023-07-13T15:27:20;2.67;;;1.77;;
1677;SDS011;6034;46.864;15.216;2023-07-13T15:29:50;3.40;;;2.10;;
1677;SDS011;6034;46.864;15.216;2023-07-13T15:32:18;4.90;;;1.97;;
1677;SDS011;6034;46.864;15.216;2023-07-13T15:34:46;3.30;;;2.40;;
1677;SDS011;6034;46.864;15.216;2023-07-13T15:37:14;3.43;;;1.40;;
1677;SDS011;6034;46.864;15.216;2023-07-13T15:39:43;3.77;;;1.43;;
1677;SDS011;6034;46.864;15.216;2023-07-13T15:42:13;2.17;;;1.07;;
1677;SDS011;6034;46.864;15.216;2023-07-13T15:44:43;3.13;;;1.23;;
1677;SDS011;6034;46.864;15.216;2023-07-13T15:47:11;3.90;;;0.90;;
1677;SDS011;6034;46.864;15.216;2023-07-13T15:49:39;2.60;;;0.90;;
1677;SDS011;6034;46.864;15.216;2023-07-13T15:52:11;2.40;;;0.70;;
1677;SDS011;6034;46.864;15.216;2023-07-13T15:54:44;2.93;;;0.60;;
1677;SDS011;6034;46.864;15.216;2023-07-13T15:57:12;2.83;;;0.63;;
1677;SDS011;6034;46.864;15.216;2023-07-13T15:59:40;1.07;;;0.50;;
1677;SDS011;6034;46.864;15.216;2023-07-13T16:02:17;1.10;;;0.40;;
1677;SDS011;6034;46.864;15.216;2023-07-13T16:04:46;5.27;;;0.70;;
1677;SDS011;6034;46.864;15.216;2023-07-13T16:07:15;3.47;;;0.67;;
1677;SDS011;6034;46.864;15.216;2023-07-13T16:09:44;3.03;;;0.73;;
1677;SDS011;6034;46.864;15.216;2023-07-13T16:12:15;1.93;;;0.60;;
1677;SDS011;6034;46.864;15.216;2023-07-13T16:14:43;1.30;;;0.70;;
1677;SDS011;6034;46.864;15.216;2023-07-13T16:17:11;2.87;;;0.50;;
1677;SDS011;6034;46.864;15.216;2023-07-13T16:19:40;3.23;;;0.63;;
1677;SDS011;6034;46.864;15.216;2023-07-13T16:22:09;4.43;;;1.10;;
1677;SDS011;6034;46.864;15.216;2023-07-13T16:24:51;2.00;;;1.00;;
1677;SDS011;6034;46.864;15.216;2023-07-13T16:27:21;3.23;;;0.90;;
1677;SDS011;6034;46.864;15.216;2023-07-13T16:29:50;1.53;;;0.80;;
1677;SDS011;6034;46.864;15.216;2023-07-13T16:32:18;1.73;;;1.07;;
1677;SDS011;6034;46.864;15.216;2023-07-13T16:34:47;3.10;;;0.80;;
1677;SDS011;6034;46.864;15.216;2023-07-13T16:37:16;1.43;;;0.60;;
1677;SDS011;6034;46.864;15.216;2023-07-13T16:39:47;2.27;;;0.73;;
1677;SDS011;6034;46.864;15.216;2023-07-13T16:42:18;1.40;;;0.47;;
1677;SDS011;6034;46.864;15.216;2023-07-13T16:44:47;1.47;;;0.60;;
1677;SDS011;6034;46.864;15.216;2023-07-13T16:47:16;3.23;;;0.67;;
1677;SDS011;6034;46.864;15.216;2023-07-13T16:49:45;2.57;;;0.80;;
1677;SDS011;6034;46.864;15.216;2023-07-13T16:52:15;4.93;;;0.90;;
1677;SDS011;6034;46.864;15.216;2023-07-13T16:54:45;2.40;;;0.60;;
1677;SDS011;6034;46.864;15.216;2023-07-13T16:57:15;1.50;;;0.73;;
1677;SDS011;6034;46.864;15.216;2023-07-13T16:59:46;3.93;;;0.80;;
1677;SDS011;6034;46.864;15.216;2023-07-13T17:02:27;1.80;;;0.83;;
1677;SDS011;6034;46.864;15.216;2023-07-13T17:05:02;3.40;;;1.10;;
1677;SDS011;6034;46.864;15.216;2023-07-13T17:07:34;2.80;;;0.80;;
1677;SDS011;6034;46.864;15.216;2023-07-13T17:10:03;2.70;;;0.83;;
1677;SDS011;6034;46.864;15.216;2023-07-13T17:12:33;2.90;;;0.93;;
1677;SDS011;6034;46.864;15.216;2023-07-13T17:15:01;4.40;;;1.00;;
1677;SDS011;6034;46.864;15.216;2023-07-13T17:17:34;2.60;;;0.83;;
1677;SDS011;6034;46.864;15.216;2023-07-13T17:20:13;7.30;;;1.37;;
1677;SDS011;6034;46.864;15.216;2023-07-13T17:22:43;3.37;;;1.00;;
1677;SDS011;6034;46.864;15.216;2023-07-13T17:25:12;1.57;;;0.90;;
1677;SDS011;6034;46.864;15.216;2023-07-13T17:27:41;2.27;;;0.80;;
1677;SDS011;6034;46.864;15.216;2023-07-13T17:30:12;2.00;;;0.93;;
1677;SDS011;6034;46.864;15.216;2023-07-13T17:32:42;2.10;;;0.80;;
1677;SDS011;6034;46.864;15.216;2023-07-13T17:35:19;3.93;;;1.27;;
1677;SDS011;6034;46.864;15.216;2023-07-13T17:37:54;2.60;;;0.63;;
1677;SDS011;6034;46.864;15.216;2023-07-13T17:40:23;2.43;;;1.10;;
1677;SDS011;6034;46.864;15.216;2023-07-13T17:42:51;2.80;;;0.83;;
1677;SDS011;6034;46.864;15.216;2023-07-13T17:45:22;2.90;;;1.00;;
1677;SDS011;6034;46.864;15.216;2023-07-13T17:47:50;2.60;;;0.60;;
1677;SDS011;6034;46.864;15.216;2023-07-13T17:50:25;1.70;;;0.70;;
1677;SDS011;6034;46.864;15.216;2023-07-13T17:53:13;1.40;;;0.70;;
1677;SDS011;6034;46.864;15.216;2023-07-13T17:55:42;2.00;;;0.80;;
1677;SDS011;6034;46.864;15.216;2023-07-13T17:58:10;2.80;;;0.83;;
1677;SDS011;6034;46.864;15.216;2023-07-13T18:00:39;3.50;;;0.90;;
1677;SDS011;6034;46.864;15.216;2023-07-13T18:03:10;3.60;;;0.90;;
1677;SDS011;6034;46.864;15.216;2023-07-13T18:05:43;1.50;;;0.70;;
1677;SDS011;6034;46.864;15.216;2023-07-13T18:08:17;2.60;;;0.80;;
1677;SDS011;6034;46.864;15.216;2023-07-13T18:10:53;2.33;;;0.70;;
1677;SDS011;6034;46.864;15.216;2023-07-13T18:13:23;1.97;;;0.97;;
1677;SDS011;6034;46.864;15.216;2023-07-13T18:15:53;211.47;;;18.43;;
1677;SDS011;6034;46.864;15.216;2023-07-13T18:18:23;1.90;;;0.90;;
1677;SDS011;6034;46.864;15.216;2023-07-13T18:20:57;2.67;;;0.90;;
1677;SDS011;6034;46.864;15.216;2023-07-13T18:23:26;2.30;;;0.70;;
1677;SDS011;6034;46.864;15.216;2023-07-13T18:25:54;3.57;;;0.60;;
1677;SDS011;6034;46.864;15.216;2023-07-13T18:28:23;4.40;;;0.83;;
1677;SDS011;6034;46.864;15.216;2023-07-13T18:30:55;2.00;;;0.90;;
1677;SDS011;6034;46.864;15.216;2023-07-13T18:33:26;5.03;;;1.03;;
1677;SDS011;6034;46.864;15.216;2023-07-13T18:35:59;2.07;;;0.80;;
1677;SDS011;6034;46.864;15.216;2023-07-13T18:38:30;2.90;;;1.13;;
1677;SDS011;6034;46.864;15.216;2023-07-13T18:41:01;3.20;;;0.90;;
1677;SDS011;6034;46.864;15.216;2023-07-13T18:43:28;3.00;;;1.00;;
1677;SDS011;6034;46.864;15.216;2023-07-13T18:45:58;2.37;;;0.73;;
1677;SDS011;6034;46.864;15.216;2023-07-13T18:48:31;4.23;;;1.10;;
1677;SDS011;6034;46.864;15.216;2023-07-13T18:51:02;2.33;;;0.80;;
1677;SDS011;6034;46.864;15.216;2023-07-13T18:53:30;3.03;;;0.93;;
1677;SDS011;6034;46.864;15.216;2023-07-13T18:56:00;2.60;;;1.03;;
1677;SDS011;6034;46.864;15.216;2023-07-13T18:58:29;1.60;;;0.63;;
1677;SDS011;6034;46.864;15.216;2023-07-13T19:00:57;3.50;;;1.17;;
1677;SDS011;6034;46.864;15.216;2023-07-13T19:03:28;7.53;;;1.50;;
1677;SDS011;6034;46.864;15.216;2023-07-13T19:06:02;91.83;;;8.80;;
1677;SDS011;6034;46.864;15.216;2023-07-13T19:08:31;2.80;;;1.17;;
1677;SDS011;6034;46.864;15.216;2023-07-13T19:11:00;1.90;;;0.87;;
1677;SDS011;6034;46.864;15.216;2023-07-13T19:13:30;1.77;;;1.00;;
1677;SDS011;6034;46.864;15.216;2023-07-13T19:16:01;3.53;;;1.07;;
1677;SDS011;6034;46.864;15.216;2023-07-13T19:18:30;1.83;;;0.70;;
1677;SDS011;6034;46.864;15.216;2023-07-13T19:20:58;2.23;;;0.70;;
1677;SDS011;6034;46.864;15.216;2023-07-13T19:23:31;3.10;;;1.10;;
1677;SDS011;6034;46.864;15.216;2023-07-13T19:26:02;1.50;;;0.70;;
1677;SDS011;6034;46.864;15.216;2023-07-13T19:28:35;2.50;;;0.90;;
1677;SDS011;6034;46.864;15.216;2023-07-13T19:31:11;2.00;;;0.73;;
1677;SDS011;6034;46.864;15.216;2023-07-13T19:33:47;2.83;;;0.93;;
1677;SDS011;6034;46.864;15.216;2023-07-13T19:36:18;23.67;;;3.20;;
1677;SDS011;6034;46.864;15.216;2023-07-13T19:38:51;2.93;;;1.10;;
1677;SDS011;6034;46.864;15.216;2023-07-13T19:41:22;2.13;;;0.80;;
1677;SDS011;6034;46.864;15.216;2023-07-13T19:43:52;1.60;;;0.93;;
1677;SDS011;6034;46.864;15.216;2023-07-13T19:46:31;1.47;;;1.03;;
1677;SDS011;6034;46.864;15.216;2023-07-13T19:49:01;2.00;;;1.30;;
1677;SDS011;6034;46.864;15.216;2023-07-13T19:51:31;5.17;;;1.47;;
1677;SDS011;6034;46.864;15.216;2023-07-13T19:54:05;3.50;;;1.07;;
1677;SDS011;6034;46.864;15.216;2023-07-13T19:56:39;2.70;;;1.30;;
1677;SDS011;6034;46.864;15.216;2023-07-13T19:59:12;5.80;;;1.50;;
1677;SDS011;6034;46.864;15.216;2023-07-13T20:01:48;3.20;;;0.83;;
1677;SDS011;6034;46.864;15.216;2023-07-13T20:04:17;7.13;;;1.97;;
1677;SDS011;6034;46.864;15.216;2023-07-13T20:06:46;2.10;;;1.13;;
1677;SDS011;6034;46.864;15.216;2023-07-13T20:09:17;1.80;;;0.93;;
1677;SDS011;6034;46.864;15.216;2023-07-13T20:11:49;3.47;;;1.23;;
1677;SDS011;6034;46.864;15.216;2023-07-13T20:14:17;1.60;;;1.00;;
1677;SDS011;6034;46.864;15.216;2023-07-13T20:16:47;4.40;;;1.17;;
1677;SDS011;6034;46.864;15.216;2023-07-13T20:19:18;2.40;;;1.30;;
1677;SDS011;6034;46.864;15.216;2023-07-13T20:21:46;3.67;;;1.13;;
1677;SDS011;6034;46.864;15.216;2023-07-13T20:24:17;2.40;;;0.97;;
1677;SDS011;6034;46.864;15.216;2023-07-13T20:26:46;1.90;;;1.30;;
1677;SDS011;6034;46.864;15.216;2023-07-13T20:29:15;2.63;;;1.20;;
1677;SDS011;6034;46.864;15.216;2023-07-13T20:31:46;2.50;;;1.27;;
1677;SDS011;6034;46.864;15.216;2023-07-13T20:34:17;113.63;;;10.60;;
1677;SDS011;6034;46.864;15.216;2023-07-13T20:36:47;2.93;;;1.20;;
1677;SDS011;6034;46.864;15.216;2023-07-13T20:39:19;3.30;;;1.27;;
1677;SDS011;6034;46.864;15.216;2023-07-13T20:41:48;3.33;;;1.37;;